createdAt,value
2019-04-29T00:02:23.603Z,39.90
2019-04-29T00:04:52.313Z,39.80
2019-04-29T00:07:21.057Z,40.10
2019-04-29T00:09:49.858Z,40.40
2019-04-29T00:12:18.768Z,40.10
2019-04-29T00:14:49.135Z,40.20
2019-04-29T00:17:19.488Z,40.50
2019-04-29T00:20:06.052Z,40.70
2019-04-29T00:22:34.844Z,40.50
2019-04-29T00:25:03.769Z,40.60
2019-04-29T00:27:32.544Z,40.90
2019-04-29T00:30:01.352Z,40.50
2019-04-29T00:32:30.043Z,40.90
2019-04-29T00:34:58.768Z,40.80
2019-04-29T00:37:47.235Z,40.70
2019-04-29T00:40:34.255Z,40.90
2019-04-29T00:43:07.585Z,40.90
2019-04-29T00:45:36.383Z,41.60
2019-04-29T00:48:05.265Z,41.50
2019-04-29T00:50:34.180Z,41.40
2019-04-29T00:53:02.967Z,41.40
2019-04-29T00:55:33.555Z,41.80
2019-04-29T00:58:02.377Z,42.00
2019-04-29T01:00:33.097Z,41.80
2019-04-29T01:03:01.889Z,42.40
2019-04-29T01:05:30.595Z,42.00
2019-04-29T01:07:59.324Z,41.80
2019-04-29T01:10:28.045Z,42.20
2019-04-29T01:12:56.767Z,42.40
2019-04-29T01:15:25.485Z,42.20
2019-04-29T01:17:54.340Z,41.90
2019-04-29T01:20:23.128Z,42.00
2019-04-29T01:22:51.838Z,42.50
2019-04-29T01:25:20.550Z,42.50
2019-04-29T01:27:53.326Z,42.60
2019-04-29T01:30:55.295Z,42.50
2019-04-29T01:33:24.101Z,41.10
2019-04-29T01:35:54.455Z,43.00
2019-04-29T01:38:23.186Z,42.70
2019-04-29T01:40:53.538Z,43.10
2019-04-29T01:43:22.336Z,43.20
2019-04-29T01:45:51.036Z,43.30
2019-04-29T01:48:19.769Z,43.30
2019-04-29T01:50:48.475Z,43.00
2019-04-29T01:53:17.198Z,43.20
2019-04-29T01:55:45.901Z,43.30
2019-04-29T01:58:14.608Z,43.20
2019-04-29T02:00:43.418Z,43.50
2019-04-29T02:03:12.130Z,43.50
2019-04-29T02:05:40.860Z,43.00
2019-04-29T02:08:09.575Z,42.90
2019-04-29T02:10:38.306Z,42.90
2019-04-29T02:13:07.035Z,43.20
2019-04-29T02:15:35.851Z,42.90
2019-04-29T02:18:04.569Z,43.10
2019-04-29T02:20:33.279Z,43.00
2019-04-29T02:23:03.658Z,43.00
2019-04-29T02:25:34.020Z,43.00
2019-04-29T02:28:02.735Z,43.10
2019-04-29T02:30:45.534Z,42.80
2019-04-29T02:33:14.248Z,42.10
2019-04-29T02:35:43.006Z,43.30
2019-04-29T02:38:13.351Z,43.30
2019-04-29T02:40:58.947Z,42.90
2019-04-29T02:43:29.306Z,43.40
2019-04-29T02:45:58.037Z,43.40
2019-04-29T02:48:31.580Z,43.40
2019-04-29T02:50:57.196Z,43.60
2019-04-29T02:53:25.911Z,43.80
2019-04-29T02:55:56.282Z,44.10
2019-04-29T02:58:45.034Z,43.80
2019-04-29T03:01:21.399Z,44.20
2019-04-29T03:03:51.751Z,44.50
2019-04-29T03:06:20.475Z,44.50
2019-04-29T03:08:49.208Z,44.80
2019-04-29T03:11:19.031Z,44.40
2019-04-29T03:13:47.747Z,44.30
2019-04-29T03:16:16.760Z,44.80
2019-04-29T03:18:53.934Z,44.80
2019-04-29T03:21:25.251Z,45.00
2019-04-29T03:23:54.675Z,44.80
2019-04-29T03:26:23.695Z,44.40
2019-04-29T03:28:52.634Z,44.40
2019-04-29T03:31:21.825Z,44.70
2019-04-29T03:33:50.616Z,44.50
2019-04-29T03:36:19.333Z,44.50
2019-04-29T03:38:48.045Z,43.80
2019-04-29T03:41:16.764Z,43.90
2019-04-29T03:43:45.487Z,44.50
2019-04-29T03:46:14.208Z,44.20
2019-04-29T03:48:43.003Z,44.80
2019-04-29T03:51:11.724Z,44.70
2019-04-29T03:53:40.437Z,44.30
2019-04-29T03:56:09.183Z,44.20
2019-04-29T03:58:37.824Z,43.80
2019-04-29T04:01:08.192Z,43.80
2019-04-29T04:03:41.291Z,43.30
2019-04-29T04:06:11.727Z,42.70
2019-04-29T04:09:05.966Z,40.90
2019-04-29T04:11:27.755Z,39.90
2019-04-29T04:13:56.501Z,39.20
2019-04-29T04:16:33.130Z,38.80
2019-04-29T04:19:06.433Z,39.50
2019-04-29T04:21:35.168Z,37.90
2019-04-29T04:24:03.890Z,37.50
2019-04-29T04:26:32.640Z,37.90
2019-04-29T04:29:01.356Z,37.50
2019-04-29T04:31:30.101Z,36.90
2019-04-29T04:33:58.810Z,36.10
2019-04-29T04:36:27.530Z,36.50
2019-04-29T04:38:56.251Z,36.10
2019-04-29T04:41:25.037Z,35.40
2019-04-29T04:43:53.762Z,35.90
2019-04-29T04:46:22.480Z,35.10
2019-04-29T04:48:51.200Z,35.20
2019-04-29T04:51:19.947Z,33.70
2019-04-29T04:53:48.711Z,33.20
2019-04-29T04:56:17.532Z,33.00
2019-04-29T04:58:46.254Z,32.50
2019-04-29T05:01:15.459Z,32.60
2019-04-29T05:03:44.187Z,33.30
2019-04-29T05:06:30.477Z,32.00
2019-04-29T05:08:59.238Z,32.90
2019-04-29T05:11:28.025Z,33.30
2019-04-29T05:13:56.746Z,32.70
2019-04-29T05:16:25.479Z,32.00
2019-04-29T05:18:54.214Z,32.40
2019-04-29T05:21:22.936Z,31.40
2019-04-29T05:23:51.668Z,31.70
2019-04-29T05:26:21.772Z,30.80
2019-04-29T05:28:50.443Z,29.70
2019-04-29T05:31:19.224Z,28.90
2019-04-29T05:33:47.961Z,28.90
2019-04-29T05:36:27.614Z,29.00
2019-04-29T05:38:57.995Z,28.60
2019-04-29T05:41:30.232Z,28.80
2019-04-29T05:44:10.833Z,28.60
2019-04-29T05:46:44.150Z,27.70
2019-04-29T05:49:14.507Z,27.00
2019-04-29T05:51:44.876Z,26.50
2019-04-29T05:54:20.950Z,26.40
2019-04-29T05:56:49.727Z,26.20
2019-04-29T05:59:18.398Z,26.90
2019-04-29T06:01:48.820Z,27.90
2019-04-29T06:04:18.253Z,27.30
2019-04-29T06:06:47.128Z,26.80
2019-04-29T06:09:16.600Z,26.60
2019-04-29T06:11:46.232Z,26.80
2019-04-29T06:14:14.951Z,27.10
2019-04-29T06:16:43.686Z,26.20
2019-04-29T06:19:12.487Z,25.90
2019-04-29T06:21:41.297Z,25.70
2019-04-29T06:24:10.042Z,25.70
2019-04-29T06:26:38.774Z,26.00
2019-04-29T06:29:07.569Z,27.00
2019-04-29T06:31:36.305Z,26.40
2019-04-29T06:34:35.613Z,26.30
2019-04-29T06:37:03.784Z,25.70
2019-04-29T06:39:32.539Z,26.40
2019-04-29T06:42:01.278Z,26.80
2019-04-29T06:44:30.036Z,26.60
2019-04-29T06:46:58.755Z,25.90
2019-04-29T06:49:27.495Z,25.80
2019-04-29T06:51:56.211Z,25.50
2019-04-29T06:54:24.997Z,26.10
2019-04-29T06:56:53.688Z,26.30
2019-04-29T06:59:22.478Z,25.80
2019-04-29T07:01:51.204Z,25.40
2019-04-29T07:04:19.929Z,25.80
2019-04-29T07:06:57.268Z,25.00
2019-04-29T07:09:19.088Z,25.40
2019-04-29T07:11:47.923Z,25.40
2019-04-29T07:14:16.655Z,25.10
2019-04-29T07:16:45.416Z,26.00
2019-04-29T07:19:14.149Z,25.60
2019-04-29T07:21:47.205Z,25.50
2019-04-29T07:24:13.329Z,25.80
2019-04-29T07:26:42.067Z,26.00
2019-04-29T07:29:10.805Z,26.20
2019-04-29T07:31:39.535Z,26.00
2019-04-29T07:34:08.623Z,25.10
2019-04-29T07:36:37.479Z,25.30
2019-04-29T07:39:07.645Z,25.00
2019-04-29T07:41:36.307Z,25.20
2019-04-29T07:44:05.042Z,25.60
2019-04-29T07:46:55.150Z,26.60
2019-04-29T07:49:05.942Z,26.90
2019-04-29T07:51:38.917Z,27.00
2019-04-29T07:54:05.153Z,27.00
2019-04-29T07:56:37.729Z,26.60
2019-04-29T07:59:04.656Z,26.60
2019-04-29T08:01:33.487Z,26.30
2019-04-29T08:04:02.221Z,26.30
2019-04-29T08:06:32.942Z,26.50
2019-04-29T08:09:07.089Z,27.00
2019-04-29T08:11:32.276Z,26.40
2019-04-29T08:14:01.771Z,26.50
2019-04-29T08:16:30.556Z,25.80
2019-04-29T08:18:59.286Z,25.50
2019-04-29T08:21:28.008Z,25.50
2019-04-29T08:23:56.889Z,25.50
2019-04-29T08:26:25.618Z,24.70
2019-04-29T08:29:00.415Z,24.80
2019-04-29T08:31:24.847Z,25.00
2019-04-29T08:33:53.667Z,24.90
2019-04-29T08:36:22.587Z,25.00
2019-04-29T08:38:51.327Z,24.80
2019-04-29T08:41:21.545Z,24.70
2019-04-29T08:43:52.487Z,24.40
2019-04-29T08:46:27.309Z,23.70
2019-04-29T08:48:56.086Z,23.30
2019-04-29T08:51:24.815Z,23.40
2019-04-29T08:53:53.531Z,23.10
2019-04-29T08:56:22.380Z,24.00
2019-04-29T08:58:51.213Z,23.90
2019-04-29T09:01:19.922Z,23.00
2019-04-29T09:03:48.689Z,23.20
2019-04-29T09:06:17.414Z,22.50
2019-04-29T09:08:54.508Z,21.70
2019-04-29T09:11:16.510Z,21.30
2019-04-29T09:13:45.243Z,21.30
2019-04-29T09:16:14.010Z,20.90
2019-04-29T09:18:42.765Z,21.20
2019-04-29T09:21:11.493Z,21.10
2019-04-29T09:23:40.378Z,21.20
2019-04-29T09:26:13.431Z,21.20
2019-04-29T09:28:42.290Z,20.50
2019-04-29T09:31:11.115Z,20.10
2019-04-29T09:33:39.836Z,19.80
2019-04-29T09:36:09.712Z,19.90
2019-04-29T09:38:38.935Z,19.30
2019-04-29T09:41:12.566Z,18.60
2019-04-29T09:43:42.936Z,18.50
2019-04-29T09:46:13.321Z,18.70
2019-04-29T09:48:42.128Z,18.40
2019-04-29T09:51:17.863Z,17.10
2019-04-29T09:53:41.262Z,16.90
2019-04-29T09:56:10.083Z,17.50
2019-04-29T09:58:38.852Z,17.90
2019-04-29T10:01:18.924Z,17.60
2019-04-29T10:04:02.543Z,18.10
2019-04-29T10:06:32.905Z,18.10
2019-04-29T10:09:01.632Z,18.00
2019-04-29T10:11:30.355Z,17.60
2019-04-29T10:13:59.198Z,17.30
2019-04-29T10:16:31.778Z,17.10
2019-04-29T10:19:07.136Z,17.50
2019-04-29T10:21:35.942Z,18.40
2019-04-29T10:24:04.836Z,18.80
2019-04-29T10:26:33.586Z,18.30
2019-04-29T10:29:03.935Z,17.30
2019-04-29T10:31:32.660Z,17.70
2019-04-29T10:34:01.497Z,17.90
2019-04-29T10:36:30.245Z,17.50
2019-04-29T10:39:00.822Z,17.30
2019-04-29T10:41:41.598Z,16.70
2019-04-29T10:44:17.612Z,16.60
2019-04-29T10:47:04.435Z,16.40
2019-04-29T10:49:39.091Z,16.80
2019-04-29T10:52:05.506Z,15.50
2019-04-29T10:54:35.091Z,17.00
2019-04-29T10:57:04.055Z,16.80
2019-04-29T10:59:36.247Z,16.70
2019-04-29T11:02:17.249Z,15.20
2019-04-29T11:04:47.674Z,15.40
2019-04-29T11:07:19.066Z,15.30
2019-04-29T11:09:50.745Z,15.90
2019-04-29T11:12:20.491Z,16.10
2019-04-29T11:14:49.209Z,16.00
2019-04-29T11:17:21.995Z,16.10
2019-04-29T11:19:50.734Z,16.30
2019-04-29T11:22:21.218Z,16.70
2019-04-29T11:25:08.199Z,17.20
2019-04-29T11:27:44.222Z,17.00
2019-04-29T11:30:14.641Z,16.60
2019-04-29T11:32:45.043Z,16.90
2019-04-29T11:35:15.471Z,16.60
2019-04-29T11:37:44.213Z,17.50
2019-04-29T11:40:13.117Z,17.30
2019-04-29T11:42:42.064Z,17.50
2019-04-29T11:45:13.616Z,15.50
2019-04-29T11:47:41.328Z,15.60
2019-04-29T11:50:20.573Z,18.70
2019-04-29T11:52:49.292Z,19.60
2019-04-29T11:55:18.412Z,20.80
2019-04-29T11:57:50.119Z,20.90
2019-04-29T12:00:21.011Z,20.70
2019-04-29T12:02:51.370Z,22.00
2019-04-29T12:05:33.791Z,22.00
2019-04-29T12:08:05.043Z,21.70
2019-04-29T12:10:33.155Z,21.50
2019-04-29T12:13:03.514Z,21.90
2019-04-29T12:15:45.138Z,22.60
2019-04-29T12:18:17.341Z,22.50
2019-04-29T12:20:50.583Z,21.90
2019-04-29T12:23:19.488Z,21.80
2019-04-29T12:25:48.214Z,21.10
2019-04-29T12:28:19.286Z,22.00
2019-04-29T12:30:51.795Z,22.10
2019-04-29T12:33:24.850Z,22.50
2019-04-29T12:35:58.579Z,22.80
2019-04-29T12:38:39.785Z,23.20
2019-04-29T12:41:21.101Z,22.80
2019-04-29T12:43:59.799Z,23.30
2019-04-29T12:46:36.207Z,23.70
2019-04-29T12:49:08.670Z,24.30
2019-04-29T12:51:35.613Z,24.00
2019-04-29T12:54:04.345Z,24.30
2019-04-29T12:56:37.399Z,24.80
2019-04-29T12:59:06.223Z,24.80
2019-04-29T13:01:51.607Z,24.70
2019-04-29T13:04:17.219Z,23.70
2019-04-29T13:06:50.317Z,23.70
2019-04-29T13:09:20.685Z,23.20
2019-04-29T13:11:56.004Z,23.20
2019-04-29T13:14:21.430Z,23.80
2019-04-29T13:17:13.633Z,25.20
2019-04-29T13:19:38.900Z,24.90
2019-04-29T13:22:10.471Z,25.00
2019-04-29T13:24:38.590Z,25.70
2019-04-29T13:27:15.925Z,26.10
2019-04-29T13:29:39.060Z,26.70
2019-04-29T13:32:07.847Z,27.10
2019-04-29T13:34:38.214Z,27.30
2019-04-29T13:37:08.219Z,27.80
2019-04-29T13:39:40.171Z,28.20
2019-04-29T13:42:09.295Z,28.30
2019-04-29T13:44:46.004Z,28.80
2019-04-29T13:47:29.286Z,28.80
2019-04-29T13:50:18.595Z,28.80
2019-04-29T13:52:32.053Z,28.40
2019-04-29T13:55:17.273Z,28.70
2019-04-29T13:57:31.118Z,29.10
2019-04-29T14:00:10.538Z,29.00
2019-04-29T14:02:40.903Z,28.80
2019-04-29T14:05:11.779Z,29.30
2019-04-29T14:07:40.582Z,29.20
2019-04-29T14:10:10.240Z,29.10
2019-04-29T14:12:48.469Z,29.80
2019-04-29T14:15:10.567Z,30.00
2019-04-29T14:17:39.387Z,30.50
2019-04-29T14:20:10.665Z,30.90
2019-04-29T14:22:39.635Z,31.20
2019-04-29T14:25:08.429Z,30.50
2019-04-29T14:27:37.221Z,30.30
2019-04-29T14:30:13.695Z,30.60
2019-04-29T14:32:46.985Z,31.60
2019-04-29T14:35:26.834Z,31.10
2019-04-29T14:38:00.086Z,31.00
2019-04-29T14:40:26.103Z,30.00
2019-04-29T14:45:37.778Z,30.40
2019-04-29T14:48:13.764Z,30.60
2019-04-29T14:50:44.359Z,30.90
2019-04-29T14:53:13.075Z,30.50
2019-04-29T14:55:41.931Z,30.60
2019-04-29T14:58:10.668Z,30.60
2019-04-29T15:00:50.350Z,30.40
2019-04-29T15:03:20.808Z,31.00
2019-04-29T15:05:49.621Z,31.20
2019-04-29T15:08:18.407Z,31.30
2019-04-29T15:10:48.812Z,31.50
2019-04-29T15:13:21.470Z,31.90
2019-04-29T15:16:05.184Z,31.80
2019-04-29T15:18:51.561Z,32.20
2019-04-29T15:21:32.773Z,32.00
2019-04-29T15:23:58.147Z,31.90
2019-04-29T15:26:26.886Z,31.90
2019-04-29T15:28:55.642Z,32.50
2019-04-29T15:31:25.048Z,32.40
2019-04-29T15:33:53.771Z,32.10
2019-04-29T15:36:22.607Z,32.00
2019-04-29T15:39:07.701Z,32.10
2019-04-29T15:41:29.708Z,33.30
2019-04-29T15:44:05.956Z,33.40
2019-04-29T15:46:22.557Z,32.90
2019-04-29T15:48:51.312Z,33.00
2019-04-29T15:51:20.056Z,34.30
2019-04-29T15:53:48.856Z,34.90
2019-04-29T15:56:28.245Z,34.70
2019-04-29T15:58:48.429Z,35.00
2019-04-29T16:01:22.231Z,36.40
2019-04-29T16:03:49.994Z,36.50
2019-04-29T16:06:40.231Z,37.00
2019-04-29T16:09:09.198Z,37.90
2019-04-29T16:12:05.151Z,38.70
2019-04-29T16:14:30.810Z,39.50
2019-04-29T16:16:59.529Z,39.30
2019-04-29T16:19:28.271Z,41.20
2019-04-29T16:21:56.996Z,42.20
2019-04-29T16:24:27.153Z,42.60
2019-04-29T16:27:01.229Z,43.10
2019-04-29T16:29:26.543Z,43.50
2019-04-29T16:32:02.139Z,44.40
2019-04-29T16:34:25.625Z,43.20
2019-04-29T16:36:54.355Z,45.10
2019-04-29T16:39:23.170Z,44.80
2019-04-29T16:42:11.564Z,45.00
2019-04-29T16:44:40.554Z,45.20
2019-04-29T16:47:13.451Z,45.50
2019-04-29T16:49:41.331Z,45.20
2019-04-29T16:52:10.043Z,45.50
2019-04-29T16:54:38.910Z,45.90
2019-04-29T16:57:07.765Z,46.40
2019-04-29T16:59:36.498Z,46.10
2019-04-29T17:02:05.425Z,46.20
2019-04-29T17:04:34.147Z,46.70
2019-04-29T17:07:12.467Z,47.20
2019-04-29T17:09:40.934Z,47.30
2019-04-29T17:12:09.745Z,48.10
2019-04-29T17:15:02.160Z,48.90
2019-04-29T17:17:13.310Z,49.70
2019-04-29T17:19:42.035Z,50.10
2019-04-29T17:22:25.501Z,50.80
2019-04-29T17:24:41.230Z,51.10
2019-04-29T17:27:14.367Z,51.60
2019-04-29T17:29:55.558Z,52.00
2019-04-29T17:32:23.606Z,52.50
2019-04-29T17:34:59.468Z,52.80
2019-04-29T17:37:23.452Z,53.20
2019-04-29T17:39:52.163Z,53.40
2019-04-29T17:42:20.899Z,53.70
2019-04-29T17:44:49.611Z,54.30
2019-04-29T17:47:19.976Z,55.00
2019-04-29T17:49:56.370Z,54.90
2019-04-29T17:52:26.754Z,55.30
2019-04-29T17:55:09.182Z,56.10
2019-04-29T17:57:39.532Z,55.90
2019-04-29T18:00:28.569Z,56.30
2019-04-29T18:03:15.354Z,56.40
2019-04-29T18:05:54.981Z,57.40
2019-04-29T18:08:29.635Z,57.90
2019-04-29T18:11:06.511Z,57.40
2019-04-29T18:13:31.339Z,58.50
2019-04-29T18:16:03.999Z,58.90
2019-04-29T18:18:43.196Z,59.50
2019-04-29T18:21:19.785Z,60.10
2019-04-29T18:23:51.427Z,60.30
2019-04-29T18:26:26.149Z,61.00
2019-04-29T18:28:58.317Z,61.40
2019-04-29T18:31:26.482Z,61.40
2019-04-29T18:33:58.145Z,61.90
2019-04-29T18:36:26.851Z,62.40
2019-04-29T18:38:55.691Z,63.00
2019-04-29T18:41:28.551Z,63.10
2019-04-29T18:43:57.815Z,63.40
2019-04-29T18:46:28.091Z,63.50
2019-04-29T18:49:03.145Z,64.20
2019-04-29T18:51:28.766Z,64.50
2019-04-29T18:53:58.495Z,64.80
2019-04-29T18:56:27.559Z,65.30
2019-04-29T18:58:56.355Z,65.40
2019-04-29T19:01:28.850Z,65.50
2019-04-29T19:04:04.766Z,65.50
2019-04-29T19:06:33.683Z,65.30
2019-04-29T19:09:02.868Z,66.00
2019-04-29T19:11:32.769Z,66.10
2019-04-29T19:14:01.635Z,66.10
2019-04-29T19:16:30.379Z,66.50
2019-04-29T19:19:01.767Z,66.60
2019-04-29T19:21:31.475Z,66.80
2019-04-29T19:24:02.150Z,66.70
2019-04-29T19:26:31.092Z,66.70
2019-04-29T19:29:01.409Z,66.70
2019-04-29T19:31:30.336Z,66.40
2019-04-29T19:33:59.050Z,66.70
2019-04-29T19:36:27.837Z,66.60
2019-04-29T19:38:56.613Z,66.40
2019-04-29T19:41:25.612Z,66.60
2019-04-29T19:43:56.534Z,66.20
2019-04-29T19:46:36.876Z,66.00
2019-04-29T19:49:00.047Z,65.60
2019-04-29T19:51:26.239Z,65.50
2019-04-29T19:53:55.303Z,64.90
2019-04-29T19:56:26.515Z,64.20
2019-04-29T19:58:57.521Z,63.40
2019-04-29T20:01:29.863Z,62.30
2019-04-29T20:03:58.321Z,60.10
2019-04-29T20:06:30.414Z,58.90
2019-04-29T20:09:02.092Z,58.10
2019-04-29T20:11:33.808Z,57.80
2019-04-29T20:14:04.209Z,56.80
2019-04-29T20:16:42.783Z,56.80
2019-04-29T20:19:15.204Z,56.10
2019-04-29T20:21:38.594Z,55.20
2019-04-29T20:24:09.840Z,54.40
2019-04-29T20:26:37.774Z,53.10
2019-04-29T20:29:07.401Z,51.90
2019-04-29T20:31:38.855Z,51.60
2019-04-29T20:34:06.810Z,50.60
2019-04-29T20:36:41.464Z,49.70
2019-04-29T20:39:06.958Z,49.50
2019-04-29T20:41:41.045Z,48.50
2019-04-29T20:44:09.070Z,48.10
2019-04-29T20:46:44.991Z,47.20
2019-04-29T20:49:08.345Z,46.80
2019-04-29T20:51:48.966Z,45.50
2019-04-29T20:54:15.937Z,44.70
2019-04-29T20:56:39.747Z,43.80
2019-04-29T20:59:12.543Z,43.80
2019-04-29T21:01:43.309Z,42.40
2019-04-29T21:04:11.001Z,40.80
2019-04-29T21:06:56.521Z,40.00
2019-04-29T21:09:10.091Z,39.90
2019-04-29T21:11:43.426Z,39.20
2019-04-29T21:14:16.528Z,39.10
2019-04-29T21:16:46.895Z,38.20
2019-04-29T21:19:15.664Z,38.50
2019-04-29T21:21:45.848Z,38.40
2019-04-29T21:24:18.430Z,38.00
2019-04-29T21:26:46.059Z,37.70
2019-04-29T21:29:18.317Z,38.00
2019-04-29T21:31:46.100Z,38.00
2019-04-29T21:34:17.450Z,37.90
2019-04-29T21:37:01.575Z,38.50
2019-04-29T21:39:44.669Z,39.00
2019-04-29T21:42:22.017Z,38.70
2019-04-29T21:44:50.838Z,38.80
2019-04-29T21:47:20.138Z,38.70
2019-04-29T21:49:49.828Z,39.40
2019-04-29T21:52:19.714Z,39.30
2019-04-29T21:54:50.694Z,39.60
2019-04-29T21:57:23.594Z,40.10
2019-04-29T21:59:49.843Z,39.70
2019-04-29T22:02:19.043Z,39.70
2019-04-29T22:04:47.873Z,40.20
2019-04-29T22:07:16.603Z,39.30
2019-04-29T22:09:49.972Z,40.40
2019-04-29T22:12:20.297Z,39.50
2019-04-29T22:14:53.041Z,39.20
2019-04-29T22:17:17.040Z,39.30
2019-04-29T22:19:45.766Z,39.70
2019-04-29T22:22:14.491Z,39.30
2019-04-29T22:24:43.222Z,40.00
2019-04-29T22:27:11.965Z,39.90
2019-04-29T22:29:40.691Z,39.00
2019-04-29T22:32:15.063Z,39.50
2019-04-29T22:34:39.884Z,39.40
2019-04-29T22:37:08.619Z,39.30
2019-04-29T22:39:37.339Z,39.40
2019-04-29T22:42:10.679Z,39.30
2019-04-29T22:45:00.680Z,39.00
2019-04-29T22:47:29.194Z,39.40
2019-04-29T22:49:58.705Z,39.50
2019-04-29T22:52:29.936Z,39.70
2019-04-29T22:55:01.689Z,40.00
2019-04-29T22:57:31.648Z,40.10
2019-04-29T22:59:59.496Z,40.50
2019-04-29T23:02:28.712Z,40.50
2019-04-29T23:04:57.451Z,40.00
2019-04-29T23:07:26.222Z,40.20
2019-04-29T23:09:55.530Z,40.20
2019-04-29T23:12:25.338Z,40.40
2019-04-29T23:14:54.127Z,40.50
2019-04-29T23:17:22.864Z,40.30
2019-04-29T23:19:53.242Z,40.50
2019-04-29T23:22:25.778Z,40.90
2019-04-29T23:25:01.392Z,40.20
2019-04-29T23:27:30.174Z,40.80
2019-04-29T23:29:58.907Z,40.20
2019-04-29T23:32:27.688Z,40.60
2019-04-29T23:34:57.113Z,40.80
2019-04-29T23:37:27.576Z,40.60
2019-04-29T23:39:57.150Z,40.60
2019-04-29T23:42:26.135Z,40.90
2019-04-29T23:44:55.053Z,41.00
2019-04-29T23:47:25.795Z,41.10
2019-04-29T23:49:54.601Z,41.70
2019-04-29T23:52:23.319Z,42.10
2019-04-29T23:54:52.043Z,42.20
2019-04-29T23:57:28.339Z,42.10
